sensor_id;sensor_type;location;lat;lon;timestamp;pressure;altitude;pressure_sealevel;temperature;humidity
55687;BME280;41911;52.362;4.978;2023-05-24T00:00:00;102528.57;;;11.26;41.70
55687;BME280;41911;52.362;4.978;2023-05-24T00:00:31;102528.42;;;11.11;41.66
55687;BME280;41911;52.362;4.978;2023-05-24T00:01:02;102528.35;;;11.13;41.64
55687;BME280;41911;52.362;4.978;2023-05-24T00:01:33;102529.96;;;11.45;41.94
55687;BME280;41911;52.362;4.978;2023-05-24T00:02:04;102529.87;;;11.44;42.27
55687;BME280;41911;52.362;4.978;2023-05-24T00:02:34;102529.76;;;11.41;42.07
55687;BME280;41911;52.362;4.978;2023-05-24T00:03:06;102528.47;;;11.29;41.78
55687;BME280;41911;52.362;4.978;2023-05-24T00:03:37;102527.52;;;11.21;41.94
55687;BME280;41911;52.362;4.978;2023-05-24T00:04:08;102527.71;;;11.19;41.93
55687;BME280;41911;52.362;4.978;2023-05-24T00:04:39;102529.07;;;11.31;41.73
55687;BME280;41911;52.362;4.978;2023-05-24T00:05:10;102528.36;;;10.98;42.13
55687;BME280;41911;52.362;4.978;2023-05-24T00:05:41;102527.51;;;11.01;42.03
55687;BME280;41911;52.362;4.978;2023-05-24T00:06:12;102528.39;;;11.00;42.57
55687;BME280;41911;52.362;4.978;2023-05-24T00:06:43;102528.30;;;11.36;43.17
55687;BME280;41911;52.362;4.978;2023-05-24T00:07:14;102529.68;;;10.92;42.51
55687;BME280;41911;52.362;4.978;2023-05-24T00:07:47;102530.49;;;10.95;42.79
55687;BME280;41911;52.362;4.978;2023-05-24T00:08:18;102530.14;;;11.47;42.21
55687;BME280;41911;52.362;4.978;2023-05-24T00:08:49;102532.48;;;11.06;42.43
55687;BME280;41911;52.362;4.978;2023-05-24T00:09:20;102534.32;;;11.03;42.57
55687;BME280;41911;52.362;4.978;2023-05-24T00:09:51;102530.88;;;11.07;42.16
55687;BME280;41911;52.362;4.978;2023-05-24T00:10:21;102530.54;;;11.16;42.44
55687;BME280;41911;52.362;4.978;2023-05-24T00:10:52;102531.36;;;11.09;42.30
55687;BME280;41911;52.362;4.978;2023-05-24T00:11:23;102529.45;;;11.17;42.07
55687;BME280;41911;52.362;4.978;2023-05-24T00:11:54;102530.10;;;11.16;42.05
55687;BME280;41911;52.362;4.978;2023-05-24T00:12:25;102530.04;;;11.15;42.23
55687;BME280;41911;52.362;4.978;2023-05-24T00:12:57;102530.58;;;11.13;42.38
55687;BME280;41911;52.362;4.978;2023-05-24T00:13:27;102530.40;;;11.20;41.95
55687;BME280;41911;52.362;4.978;2023-05-24T00:13:58;102531.31;;;11.47;42.07
55687;BME280;41911;52.362;4.978;2023-05-24T00:14:29;102529.41;;;11.13;42.31
55687;BME280;41911;52.362;4.978;2023-05-24T00:15:00;102530.98;;;10.82;42.44
55687;BME280;41911;52.362;4.978;2023-05-24T00:15:33;102531.94;;;11.16;42.18
55687;BME280;41911;52.362;4.978;2023-05-24T00:16:04;102531.92;;;11.18;42.30
55687;BME280;41911;52.362;4.978;2023-05-24T00:16:35;102531.76;;;11.14;42.22
55687;BME280;41911;52.362;4.978;2023-05-24T00:17:06;102532.97;;;11.14;42.04
55687;BME280;41911;52.362;4.978;2023-05-24T00:17:37;102535.01;;;11.21;42.41
55687;BME280;41911;52.362;4.978;2023-05-24T00:18:09;102535.43;;;11.58;42.00
55687;BME280;41911;52.362;4.978;2023-05-24T00:18:40;102534.90;;;11.23;42.10
55687;BME280;41911;52.362;4.978;2023-05-24T00:19:11;102536.62;;;11.26;42.09
55687;BME280;41911;52.362;4.978;2023-05-24T00:19:42;102536.41;;;11.18;42.00
55687;BME280;41911;52.362;4.978;2023-05-24T00:20:13;102537.27;;;11.14;41.99
55687;BME280;41911;52.362;4.978;2023-05-24T00:20:44;102535.36;;;10.81;41.70
55687;BME280;41911;52.362;4.978;2023-05-24T00:21:15;102535.46;;;11.21;41.66
55687;BME280;41911;52.362;4.978;2023-05-24T00:21:46;102536.33;;;11.31;41.87
55687;BME280;41911;52.362;4.978;2023-05-24T00:22:18;102536.35;;;11.23;42.00
55687;BME280;41911;52.362;4.978;2023-05-24T00:22:49;102535.87;;;11.12;42.13
55687;BME280;41911;52.362;4.978;2023-05-24T00:23:19;102536.10;;;10.78;42.52
55687;BME280;41911;52.362;4.978;2023-05-24T00:23:50;102534.58;;;11.07;42.37
55687;BME280;41911;52.362;4.978;2023-05-24T00:24:21;102533.56;;;11.20;42.16
55687;BME280;41911;52.362;4.978;2023-05-24T00:24:52;102535.09;;;11.32;41.99
55687;BME280;41911;52.362;4.978;2023-05-24T00:25:23;102530.88;;;11.32;41.92
55687;BME280;41911;52.362;4.978;2023-05-24T00:25:54;102533.32;;;11.36;41.57
55687;BME280;41911;52.362;4.978;2023-05-24T00:26:25;102533.26;;;11.36;41.62
55687;BME280;41911;52.362;4.978;2023-05-24T00:26:56;102534.05;;;11.27;41.91
55687;BME280;41911;52.362;4.978;2023-05-24T00:27:27;102534.06;;;11.19;41.75
55687;BME280;41911;52.362;4.978;2023-05-24T00:27:58;102534.55;;;11.24;41.60
55687;BME280;41911;52.362;4.978;2023-05-24T00:28:29;102534.39;;;11.18;42.02
55687;BME280;41911;52.362;4.978;2023-05-24T00:29:02;102533.97;;;11.22;41.30
55687;BME280;41911;52.362;4.978;2023-05-24T00:29:33;102533.54;;;11.48;41.52
55687;BME280;41911;52.362;4.978;2023-05-24T00:30:05;102532.77;;;11.10;42.15
55687;BME280;41911;52.362;4.978;2023-05-24T00:30:36;102532.28;;;11.37;41.75
55687;BME280;41911;52.362;4.978;2023-05-24T00:31:07;102531.65;;;10.98;42.04
55687;BME280;41911;52.362;4.978;2023-05-24T00:31:38;102529.42;;;10.94;42.48
55687;BME280;41911;52.362;4.978;2023-05-24T00:32:09;102528.53;;;10.74;42.12
55687;BME280;41911;52.362;4.978;2023-05-24T00:32:40;102528.32;;;11.32;42.11
55687;BME280;41911;52.362;4.978;2023-05-24T00:33:11;102526.85;;;11.03;42.11
55687;BME280;41911;52.362;4.978;2023-05-24T00:33:42;102526.47;;;11.04;42.56
55687;BME280;41911;52.362;4.978;2023-05-24T00:34:12;102529.22;;;11.04;42.54
55687;BME280;41911;52.362;4.978;2023-05-24T00:34:43;102528.66;;;11.05;42.70
55687;BME280;41911;52.362;4.978;2023-05-24T00:35:15;102527.76;;;11.08;42.84
55687;BME280;41911;52.362;4.978;2023-05-24T00:35:46;102528.10;;;11.18;42.45
55687;BME280;41911;52.362;4.978;2023-05-24T00:36:17;102528.84;;;11.18;42.22
55687;BME280;41911;52.362;4.978;2023-05-24T00:36:49;102526.48;;;11.19;42.14
55687;BME280;41911;52.362;4.978;2023-05-24T00:37:20;102529.13;;;11.07;42.11
55687;BME280;41911;52.362;4.978;2023-05-24T00:37:51;102529.27;;;11.14;42.18
55687;BME280;41911;52.362;4.978;2023-05-24T00:38:23;102528.20;;;11.19;42.25
55687;BME280;41911;52.362;4.978;2023-05-24T00:38:54;102529.47;;;11.17;42.34
55687;BME280;41911;52.362;4.978;2023-05-24T00:39:25;102527.69;;;11.21;42.48
55687;BME280;41911;52.362;4.978;2023-05-24T00:39:56;102527.12;;;11.22;42.11
55687;BME280;41911;52.362;4.978;2023-05-24T00:40:27;102527.01;;;11.16;42.10
55687;BME280;41911;52.362;4.978;2023-05-24T00:40:58;102526.97;;;11.12;42.46
55687;BME280;41911;52.362;4.978;2023-05-24T00:41:29;102525.60;;;11.10;42.43
55687;BME280;41911;52.362;4.978;2023-05-24T00:42:01;102523.99;;;11.10;42.78
55687;BME280;41911;52.362;4.978;2023-05-24T00:42:32;102523.47;;;10.86;42.35
55687;BME280;41911;52.362;4.978;2023-05-24T00:43:03;102524.60;;;11.23;42.20
55687;BME280;41911;52.362;4.978;2023-05-24T00:43:34;102526.95;;;11.20;42.40
55687;BME280;41911;52.362;4.978;2023-05-24T00:44:05;102526.69;;;11.23;42.26
55687;BME280;41911;52.362;4.978;2023-05-24T00:44:36;102526.09;;;11.22;42.57
55687;BME280;41911;52.362;4.978;2023-05-24T00:45:08;102526.34;;;11.15;42.54
55687;BME280;41911;52.362;4.978;2023-05-24T00:45:45;102526.05;;;11.24;42.61
55687;BME280;41911;52.362;4.978;2023-05-24T00:46:17;102527.55;;;11.41;41.75
55687;BME280;41911;52.362;4.978;2023-05-24T00:46:49;102522.96;;;11.37;41.69
55687;BME280;41911;52.362;4.978;2023-05-24T00:47:21;102521.93;;;11.39;41.85
55687;BME280;41911;52.362;4.978;2023-05-24T00:47:52;102523.34;;;11.08;41.89
55687;BME280;41911;52.362;4.978;2023-05-24T00:48:23;102521.45;;;11.35;42.05
55687;BME280;41911;52.362;4.978;2023-05-24T00:48:54;102520.84;;;11.33;41.94
55687;BME280;41911;52.362;4.978;2023-05-24T00:49:25;102519.90;;;11.25;41.76
55687;BME280;41911;52.362;4.978;2023-05-24T00:49:56;102517.70;;;11.34;41.47
55687;BME280;41911;52.362;4.978;2023-05-24T00:50:27;102518.99;;;11.29;41.88
55687;BME280;41911;52.362;4.978;2023-05-24T00:50:58;102518.11;;;10.89;42.15
55687;BME280;41911;52.362;4.978;2023-05-24T00:51:30;102519.26;;;11.08;41.98
55687;BME280;41911;52.362;4.978;2023-05-24T00:52:01;102520.49;;;11.41;42.08
55687;BME280;41911;52.362;4.978;2023-05-24T00:52:32;102517.59;;;11.27;41.87
55687;BME280;41911;52.362;4.978;2023-05-24T00:53:03;102517.67;;;11.17;42.21
55687;BME280;41911;52.362;4.978;2023-05-24T00:53:36;102519.39;;;11.11;42.37
55687;BME280;41911;52.362;4.978;2023-05-24T00:54:09;102519.83;;;11.10;42.56
55687;BME280;41911;52.362;4.978;2023-05-24T00:54:40;102518.54;;;11.10;42.23
55687;BME280;41911;52.362;4.978;2023-05-24T00:55:12;102519.49;;;11.13;42.08
55687;BME280;41911;52.362;4.978;2023-05-24T00:55:43;102520.58;;;11.11;42.72
55687;BME280;41911;52.362;4.978;2023-05-24T00:56:15;102517.48;;;11.03;42.43
55687;BME280;41911;52.362;4.978;2023-05-24T00:56:47;102517.44;;;11.07;42.80
55687;BME280;41911;52.362;4.978;2023-05-24T00:57:18;102518.07;;;11.08;42.50
55687;BME280;41911;52.362;4.978;2023-05-24T00:57:50;102517.39;;;11.12;42.27
55687;BME280;41911;52.362;4.978;2023-05-24T00:58:22;102518.20;;;11.12;42.24
55687;BME280;41911;52.362;4.978;2023-05-24T00:58:53;102519.40;;;11.36;42.52
55687;BME280;41911;52.362;4.978;2023-05-24T00:59:25;102517.90;;;11.15;42.34
55687;BME280;41911;52.362;4.978;2023-05-24T00:59:56;102516.39;;;11.09;42.26
55687;BME280;41911;52.362;4.978;2023-05-24T01:00:28;102512.97;;;11.22;42.31
55687;BME280;41911;52.362;4.978;2023-05-24T01:01:01;102515.81;;;11.41;42.54
55687;BME280;41911;52.362;4.978;2023-05-24T01:01:32;102517.00;;;11.11;42.52
55687;BME280;41911;52.362;4.978;2023-05-24T01:02:03;102517.21;;;11.42;42.31
55687;BME280;41911;52.362;4.978;2023-05-24T01:02:34;102518.75;;;11.10;42.50
55687;BME280;41911;52.362;4.978;2023-05-24T01:03:05;102516.26;;;11.24;42.14
55687;BME280;41911;52.362;4.978;2023-05-24T01:03:36;102518.71;;;11.23;42.13
55687;BME280;41911;52.362;4.978;2023-05-24T01:04:07;102518.31;;;11.17;42.60
55687;BME280;41911;52.362;4.978;2023-05-24T01:04:38;102518.21;;;11.06;42.47
55687;BME280;41911;52.362;4.978;2023-05-24T01:05:09;102519.77;;;11.03;42.99
55687;BME280;41911;52.362;4.978;2023-05-24T01:05:40;102521.92;;;11.06;43.05
55687;BME280;41911;52.362;4.978;2023-05-24T01:06:12;102522.49;;;11.11;42.71
55687;BME280;41911;52.362;4.978;2023-05-24T01:06:50;102520.59;;;10.99;42.80
55687;BME280;41911;52.362;4.978;2023-05-24T01:07:29;102519.97;;;10.75;43.41
55687;BME280;41911;52.362;4.978;2023-05-24T01:08:12;102517.43;;;10.86;43.28
55687;BME280;41911;52.362;4.978;2023-05-24T01:08:53;102519.79;;;10.58;44.12
55687;BME280;41911;52.362;4.978;2023-05-24T01:09:37;102516.96;;;11.02;43.80
55687;BME280;41911;52.362;4.978;2023-05-24T01:10:26;102515.39;;;10.69;43.49
55687;BME280;41911;52.362;4.978;2023-05-24T01:11:05;102516.71;;;10.75;43.65
55687;BME280;41911;52.362;4.978;2023-05-24T01:11:48;102516.31;;;11.07;43.34
55687;BME280;41911;52.362;4.978;2023-05-24T01:12:28;102518.54;;;11.34;43.04
55687;BME280;41911;52.362;4.978;2023-05-24T01:13:04;102514.65;;;10.96;43.14
55687;BME280;41911;52.362;4.978;2023-05-24T01:13:45;102516.82;;;10.80;43.30
55687;BME280;41911;52.362;4.978;2023-05-24T01:14:25;102515.64;;;10.56;44.24
55687;BME280;41911;52.362;4.978;2023-05-24T01:15:03;102515.75;;;10.46;44.40
55687;BME280;41911;52.362;4.978;2023-05-24T01:15:44;102515.69;;;10.63;43.81
55687;BME280;41911;52.362;4.978;2023-05-24T01:16:22;102514.11;;;10.99;43.84
55687;BME280;41911;52.362;4.978;2023-05-24T01:16:59;102516.15;;;10.68;44.62
55687;BME280;41911;52.362;4.978;2023-05-24T01:17:39;102516.05;;;11.09;44.16
55687;BME280;41911;52.362;4.978;2023-05-24T01:18:19;102515.54;;;10.65;44.03
55687;BME280;41911;52.362;4.978;2023-05-24T01:18:56;102513.65;;;11.21;43.93
55687;BME280;41911;52.362;4.978;2023-05-24T01:19:42;102513.76;;;11.30;43.72
55687;BME280;41911;52.362;4.978;2023-05-24T01:20:17;102511.86;;;11.39;43.57
55687;BME280;41911;52.362;4.978;2023-05-24T01:20:53;102509.61;;;11.10;43.74
55687;BME280;41911;52.362;4.978;2023-05-24T01:21:41;102509.57;;;10.87;43.71
55687;BME280;41911;52.362;4.978;2023-05-24T01:22:28;102508.93;;;11.03;43.85
55687;BME280;41911;52.362;4.978;2023-05-24T01:23:14;102506.27;;;11.32;44.03
55687;BME280;41911;52.362;4.978;2023-05-24T01:23:55;102504.17;;;11.22;44.34
55687;BME280;41911;52.362;4.978;2023-05-24T01:24:39;102502.16;;;11.35;44.05
55687;BME280;41911;52.362;4.978;2023-05-24T01:25:18;102501.48;;;11.32;44.03
55687;BME280;41911;52.362;4.978;2023-05-24T01:26:04;102502.66;;;11.13;44.03
55687;BME280;41911;52.362;4.978;2023-05-24T01:26:44;102504.14;;;11.28;43.79
55687;BME280;41911;52.362;4.978;2023-05-24T01:27:18;102504.65;;;11.27;43.73
55687;BME280;41911;52.362;4.978;2023-05-24T01:27:50;102505.83;;;10.87;44.16
55687;BME280;41911;52.362;4.978;2023-05-24T01:28:22;102507.06;;;11.13;44.14
55687;BME280;41911;52.362;4.978;2023-05-24T01:28:54;102508.85;;;10.88;44.40
55687;BME280;41911;52.362;4.978;2023-05-24T01:29:26;102510.04;;;10.97;44.59
55687;BME280;41911;52.362;4.978;2023-05-24T01:29:59;102509.29;;;11.09;44.39
55687;BME280;41911;52.362;4.978;2023-05-24T01:30:31;102511.10;;;11.31;44.62
55687;BME280;41911;52.362;4.978;2023-05-24T01:31:03;102511.67;;;10.76;44.42
55687;BME280;41911;52.362;4.978;2023-05-24T01:31:35;102510.61;;;11.49;44.11
55687;BME280;41911;52.362;4.978;2023-05-24T01:32:07;102513.13;;;10.95;44.05
55687;BME280;41911;52.362;4.978;2023-05-24T01:32:38;102514.61;;;11.30;44.06
55687;BME280;41911;52.362;4.978;2023-05-24T01:33:10;102515.81;;;10.95;44.59
55687;BME280;41911;52.362;4.978;2023-05-24T01:33:41;102521.26;;;10.81;44.48
55687;BME280;41911;52.362;4.978;2023-05-24T01:34:12;102513.70;;;10.62;44.42
55687;BME280;41911;52.362;4.978;2023-05-24T01:34:43;102515.73;;;11.25;44.47
55687;BME280;41911;52.362;4.978;2023-05-24T01:35:14;102511.64;;;10.74;44.36
55687;BME280;41911;52.362;4.978;2023-05-24T01:35:45;102511.52;;;11.35;44.38
55687;BME280;41911;52.362;4.978;2023-05-24T01:36:16;102510.52;;;11.39;44.27
55687;BME280;41911;52.362;4.978;2023-05-24T01:36:47;102513.94;;;11.26;44.13
55687;BME280;41911;52.362;4.978;2023-05-24T01:37:18;102510.45;;;11.46;43.97
55687;BME280;41911;52.362;4.978;2023-05-24T01:37:49;102512.78;;;10.99;44.31
55687;BME280;41911;52.362;4.978;2023-05-24T01:38:20;102512.47;;;11.06;44.23
55687;BME280;41911;52.362;4.978;2023-05-24T01:38:51;102514.60;;;11.15;44.56
55687;BME280;41911;52.362;4.978;2023-05-24T01:39:26;102514.23;;;10.77;44.54
55687;BME280;41911;52.362;4.978;2023-05-24T01:39:57;102515.94;;;10.89;44.47
55687;BME280;41911;52.362;4.978;2023-05-24T01:40:29;102512.75;;;11.02;44.48
55687;BME280;41911;52.362;4.978;2023-05-24T01:41:18;102515.33;;;10.98;44.59
55687;BME280;41911;52.362;4.978;2023-05-24T01:42:01;102513.87;;;11.19;44.56
55687;BME280;41911;52.362;4.978;2023-05-24T01:42:40;102515.44;;;11.03;44.72
55687;BME280;41911;52.362;4.978;2023-05-24T01:43:17;102512.78;;;10.87;44.43
55687;BME280;41911;52.362;4.978;2023-05-24T01:43:58;102514.40;;;10.99;44.51
55687;BME280;41911;52.362;4.978;2023-05-24T01:44:36;102512.69;;;10.73;44.60
55687;BME280;41911;52.362;4.978;2023-05-24T01:45:15;102512.59;;;10.65;44.80
55687;BME280;41911;52.362;4.978;2023-05-24T01:45:54;102513.93;;;10.76;44.72
55687;BME280;41911;52.362;4.978;2023-05-24T01:46:34;102513.62;;;10.57;44.68
55687;BME280;41911;52.362;4.978;2023-05-24T01:47:13;102511.14;;;10.72;44.91
55687;BME280;41911;52.362;4.978;2023-05-24T01:47:59;102510.16;;;10.66;44.89
55687;BME280;41911;52.362;4.978;2023-05-24T01:48:37;102508.76;;;10.44;44.77
55687;BME280;41911;52.362;4.978;2023-05-24T01:49:15;102508.81;;;11.02;44.47
55687;BME280;41911;52.362;4.978;2023-05-24T01:49:49;102506.64;;;11.17;44.58
55687;BME280;41911;52.362;4.978;2023-05-24T01:50:27;102504.75;;;10.62;44.47
55687;BME280;41911;52.362;4.978;2023-05-24T01:51:06;102503.66;;;10.61;44.40
55687;BME280;41911;52.362;4.978;2023-05-24T01:51:43;102506.46;;;10.70;44.26
55687;BME280;41911;52.362;4.978;2023-05-24T01:52:21;102507.19;;;10.86;44.46
55687;BME280;41911;52.362;4.978;2023-05-24T01:52:55;102502.00;;;10.91;44.51
55687;BME280;41911;52.362;4.978;2023-05-24T01:53:31;102502.67;;;10.93;44.51
55687;BME280;41911;52.362;4.978;2023-05-24T01:54:04;102502.57;;;11.39;44.29
55687;BME280;41911;52.362;4.978;2023-05-24T01:54:38;102502.39;;;10.97;44.42
55687;BME280;41911;52.362;4.978;2023-05-24T01:55:14;102501.29;;;10.93;44.49
55687;BME280;41911;52.362;4.978;2023-05-24T01:55:48;102502.26;;;10.99;44.40
55687;BME280;41911;52.362;4.978;2023-05-24T01:56:21;102501.40;;;10.67;44.50
55687;BME280;41911;52.362;4.978;2023-05-24T01:56:54;102499.74;;;10.95;44.54
55687;BME280;41911;52.362;4.978;2023-05-24T01:57:27;102499.72;;;10.56;44.71
55687;BME280;41911;52.362;4.978;2023-05-24T01:58:01;102499.43;;;11.14;44.84
55687;BME280;41911;52.362;4.978;2023-05-24T01:58:33;102498.36;;;10.96;44.58
55687;BME280;41911;52.362;4.978;2023-05-24T01:59:06;102498.91;;;10.96;44.55
55687;BME280;41911;52.362;4.978;2023-05-24T01:59:39;102499.71;;;11.13;44.10
55687;BME280;41911;52.362;4.978;2023-05-24T02:00:14;102499.35;;;11.01;44.37
55687;BME280;41911;52.362;4.978;2023-05-24T02:00:45;102499.98;;;10.79;44.27
55687;BME280;41911;52.362;4.978;2023-05-24T02:01:17;102503.01;;;10.71;44.18
55687;BME280;41911;52.362;4.978;2023-05-24T02:01:48;102499.60;;;10.74;44.10
55687;BME280;41911;52.362;4.978;2023-05-24T02:02:19;102500.17;;;10.78;44.15
55687;BME280;41911;52.362;4.978;2023-05-24T02:02:51;102501.70;;;10.78;44.36
55687;BME280;41911;52.362;4.978;2023-05-24T02:03:22;102502.49;;;11.08;44.14
55687;BME280;41911;52.362;4.978;2023-05-24T02:03:54;102500.50;;;11.05;44.23
55687;BME280;41911;52.362;4.978;2023-05-24T02:04:25;102500.97;;;11.22;43.91
55687;BME280;41911;52.362;4.978;2023-05-24T02:04:56;102499.88;;;10.87;44.25
55687;BME280;41911;52.362;4.978;2023-05-24T02:05:27;102499.63;;;10.85;44.16
55687;BME280;41911;52.362;4.978;2023-05-24T02:05:58;102497.65;;;11.49;44.27
55687;BME280;41911;52.362;4.978;2023-05-24T02:06:28;102497.77;;;11.44;44.04
55687;BME280;41911;52.362;4.978;2023-05-24T02:06:59;102498.21;;;10.85;44.04
55687;BME280;41911;52.362;4.978;2023-05-24T02:07:30;102496.14;;;11.13;43.79
55687;BME280;41911;52.362;4.978;2023-05-24T02:08:01;102493.96;;;10.80;43.99
55687;BME280;41911;52.362;4.978;2023-05-24T02:08:32;102496.00;;;11.09;43.99
55687;BME280;41911;52.362;4.978;2023-05-24T02:09:03;102493.05;;;11.42;44.14
55687;BME280;41911;52.362;4.978;2023-05-24T02:09:34;102490.65;;;11.33;44.17
55687;BME280;41911;52.362;4.978;2023-05-24T02:10:06;102491.47;;;10.74;44.53
55687;BME280;41911;52.362;4.978;2023-05-24T02:10:38;102489.14;;;10.68;44.27
55687;BME280;41911;52.362;4.978;2023-05-24T02:11:09;102489.54;;;11.04;44.51
55687;BME280;41911;52.362;4.978;2023-05-24T02:11:40;102488.62;;;11.17;44.33
55687;BME280;41911;52.362;4.978;2023-05-24T02:12:11;102490.83;;;10.92;44.44
55687;BME280;41911;52.362;4.978;2023-05-24T02:12:42;102489.13;;;11.15;44.49
55687;BME280;41911;52.362;4.978;2023-05-24T02:13:13;102491.91;;;10.95;44.90
55687;BME280;41911;52.362;4.978;2023-05-24T02:13:43;102488.77;;;10.59;45.03
55687;BME280;41911;52.362;4.978;2023-05-24T02:14:14;102490.32;;;10.46;44.87
55687;BME280;41911;52.362;4.978;2023-05-24T02:14:45;102490.56;;;10.52;44.85
55687;BME280;41911;52.362;4.978;2023-05-24T02:15:16;102490.48;;;10.49;45.08
55687;BME280;41911;52.362;4.978;2023-05-24T02:15:47;102490.45;;;10.56;45.12
55687;BME280;41911;52.362;4.978;2023-05-24T02:16:18;102489.51;;;10.55;44.97
55687;BME280;41911;52.362;4.978;2023-05-24T02:16:49;102487.84;;;10.37;44.89
55687;BME280;41911;52.362;4.978;2023-05-24T02:17:20;102488.44;;;10.42;45.29
55687;BME280;41911;52.362;4.978;2023-05-24T02:17:51;102487.90;;;10.59;45.17
55687;BME280;41911;52.362;4.978;2023-05-24T02:18:22;102485.57;;;10.96;44.98
55687;BME280;41911;52.362;4.978;2023-05-24T02:18:53;102488.77;;;10.89;44.99
55687;BME280;41911;52.362;4.978;2023-05-24T02:19:24;102488.74;;;10.89;45.00
55687;BME280;41911;52.362;4.978;2023-05-24T02:19:55;102490.01;;;10.71;44.77
55687;BME280;41911;52.362;4.978;2023-05-24T02:20:25;102489.75;;;10.65;44.88
55687;BME280;41911;52.362;4.978;2023-05-24T02:20:56;102485.44;;;11.00;45.12
55687;BME280;41911;52.362;4.978;2023-05-24T02:21:27;102486.34;;;10.67;44.90
55687;BME280;41911;52.362;4.978;2023-05-24T02:21:58;102488.62;;;10.67;44.78
55687;BME280;41911;52.362;4.978;2023-05-24T02:22:29;102488.66;;;10.94;45.10
55687;BME280;41911;52.362;4.978;2023-05-24T02:23:00;102485.17;;;10.79;44.71
55687;BME280;41911;52.362;4.978;2023-05-24T02:23:31;102487.46;;;10.59;44.76
55687;BME280;41911;52.362;4.978;2023-05-24T02:24:02;102487.39;;;10.63;45.56
55687;BME280;41911;52.362;4.978;2023-05-24T02:24:33;102487.08;;;10.47;45.47
55687;BME280;41911;52.362;4.978;2023-05-24T02:25:05;102485.83;;;10.61;45.37
55687;BME280;41911;52.362;4.978;2023-05-24T02:25:36;102487.91;;;10.56;45.52
55687;BME280;41911;52.362;4.978;2023-05-24T02:26:07;102486.95;;;10.61;45.49
55687;BME280;41911;52.362;4.978;2023-05-24T02:26:38;102485.67;;;10.71;45.45
55687;BME280;41911;52.362;4.978;2023-05-24T02:27:09;102484.80;;;10.72;45.26
55687;BME280;41911;52.362;4.978;2023-05-24T02:27:39;102484.76;;;10.74;45.30
55687;BME280;41911;52.362;4.978;2023-05-24T02:28:11;102486.20;;;10.66;45.23
55687;BME280;41911;52.362;4.978;2023-05-24T02:28:42;102484.67;;;10.77;45.25
55687;BME280;41911;52.362;4.978;2023-05-24T02:29:13;102485.82;;;10.71;45.14
55687;BME280;41911;52.362;4.978;2023-05-24T02:29:44;102484.30;;;10.74;45.07
55687;BME280;41911;52.362;4.978;2023-05-24T02:30:14;102484.33;;;10.71;45.31
55687;BME280;41911;52.362;4.978;2023-05-24T02:30:45;102482.85;;;10.27;45.41
55687;BME280;41911;52.362;4.978;2023-05-24T02:31:16;102480.28;;;10.45;45.69
55687;BME280;41911;52.362;4.978;2023-05-24T02:31:48;102483.18;;;10.16;45.57
55687;BME280;41911;52.362;4.978;2023-05-24T02:32:18;102483.78;;;10.06;45.73
55687;BME280;41911;52.362;4.978;2023-05-24T02:32:50;102484.41;;;10.44;45.74
55687;BME280;41911;52.362;4.978;2023-05-24T02:33:21;102486.55;;;10.56;45.66
55687;BME280;41911;52.362;4.978;2023-05-24T02:33:52;102486.17;;;10.70;45.43
55687;BME280;41911;52.362;4.978;2023-05-24T02:34:24;102484.79;;;10.77;45.28
55687;BME280;41911;52.362;4.978;2023-05-24T02:34:55;102485.71;;;10.18;45.06
55687;BME280;41911;52.362;4.978;2023-05-24T02:35:25;102484.04;;;10.68;45.46
55687;BME280;41911;52.362;4.978;2023-05-24T02:35:56;102484.63;;;10.35;45.54
55687;BME280;41911;52.362;4.978;2023-05-24T02:36:27;102482.95;;;10.49;45.60
55687;BME280;41911;52.362;4.978;2023-05-24T02:36:58;102483.85;;;10.57;45.39
55687;BME280;41911;52.362;4.978;2023-05-24T02:37:29;102484.42;;;10.59;45.33
55687;BME280;41911;52.362;4.978;2023-05-24T02:38:00;102483.76;;;10.87;45.74
55687;BME280;41911;52.362;4.978;2023-05-24T02:38:31;102483.97;;;10.72;45.31
55687;BME280;41911;52.362;4.978;2023-05-24T02:39:02;102485.31;;;10.72;45.43
55687;BME280;41911;52.362;4.978;2023-05-24T02:39:33;102482.93;;;10.36;45.70
55687;BME280;41911;52.362;4.978;2023-05-24T02:40:05;102484.94;;;10.49;45.49
55687;BME280;41911;52.362;4.978;2023-05-24T02:40:36;102487.60;;;10.60;45.28
55687;BME280;41911;52.362;4.978;2023-05-24T02:41:07;102487.54;;;10.67;45.35
55687;BME280;41911;52.362;4.978;2023-05-24T02:41:38;102486.53;;;10.64;45.40
55687;BME280;41911;52.362;4.978;2023-05-24T02:42:09;102488.14;;;10.75;45.18
55687;BME280;41911;52.362;4.978;2023-05-24T02:42:40;102487.08;;;10.80;45.02
55687;BME280;41911;52.362;4.978;2023-05-24T02:43:11;102485.18;;;10.83;44.89
55687;BME280;41911;52.362;4.978;2023-05-24T02:43:42;102486.73;;;10.95;44.85
55687;BME280;41911;52.362;4.978;2023-05-24T02:44:13;102485.87;;;10.83;44.93
55687;BME280;41911;52.362;4.978;2023-05-24T02:44:44;102486.28;;;10.81;45.11
55687;BME280;41911;52.362;4.978;2023-05-24T02:45:15;102486.81;;;10.77;45.22
55687;BME280;41911;52.362;4.978;2023-05-24T02:45:46;102488.08;;;10.75;45.17
55687;BME280;41911;52.362;4.978;2023-05-24T02:46:17;102488.58;;;10.46;45.09
55687;BME280;41911;52.362;4.978;2023-05-24T02:46:48;102490.96;;;10.82;45.13
55687;BME280;41911;52.362;4.978;2023-05-24T02:47:19;102490.40;;;10.49;45.11
55687;BME280;41911;52.362;4.978;2023-05-24T02:47:50;102492.89;;;10.73;44.91
55687;BME280;41911;52.362;4.978;2023-05-24T02:48:21;102491.18;;;10.84;44.98
55687;BME280;41911;52.362;4.978;2023-05-24T02:48:51;102493.73;;;10.98;45.13
55687;BME280;41911;52.362;4.978;2023-05-24T02:49:22;102492.58;;;10.37;45.20
55687;BME280;41911;52.362;4.978;2023-05-24T02:49:53;102493.43;;;10.70;45.13
55687;BME280;41911;52.362;4.978;2023-05-24T02:50:24;102494.37;;;10.74;45.24
55687;BME280;41911;52.362;4.978;2023-05-24T02:50:55;102494.48;;;10.45;45.23